Terminal Aerodrome Forecast
Issued by NWS Rapid City, SD

Home | Current Version | Previous Version | Text Only | Print | Product List | Glossary Off
Versions: 1 2 3 4 5 6 7 8 9 10 11 12 13 14 15 16 17 18 19

598
FTUS43 KUNR 232324
TAFRAP
TAF
KRAP 232324Z 2400/2424 34022G32KT P6SM -SHRA BKN015
     FM240500 34014G24KT P6SM BKN030
     FM241500 01011KT P6SM BKN150=

USA.gov is the U.S. government's official web portal to all federal, state and local government web resources and services.